Time;durP1;ratioP1;P1;durP2;ratioP2;P2;SDS_P1;SDS_P2;PMS_P1;PMS_P2;Temp;Humidity;BMP_temperature;BMP_pressure;BME280_temperature;BME280_humidity;BME280_pressure;Samples;Min_cycle;Max_cycle;Signal;HPM_P1;HPM_P2
2021/08/09 00:02:24;;;;;;;1.35;0.98;;;;;;;17.55;81.20;96765.88;1721189;82;21049;-82
2021/08/09 00:04:49;;;;;;;4.67;2.00;;;;;;;17.50;81.16;96751.28;1713277;81;21001;-82
2021/08/09 00:07:15;;;;;;;2.12;1.32;;;;;;;17.48;81.16;96745.95;1721708;82;21013;-82
2021/08/09 00:09:41;;;;;;;2.85;1.30;;;;;;;17.44;81.32;96746.10;1727499;81;21041;-81
2021/08/09 00:12:07;;;;;;;2.08;1.10;;;;;;;17.39;81.24;96750.67;1723602;82;20951;-82
2021/08/09 00:14:33;;;;;;;1.20;0.90;;;;;;;17.34;81.20;96753.14;1725799;81;21041;-82
2021/08/09 00:16:59;;;;;;;2.85;1.10;;;;;;;17.27;81.13;96761.09;1726974;82;21129;-82
2021/08/09 00:19:25;;;;;;;2.90;1.47;;;;;;;17.24;81.15;96772.00;1724447;82;21065;-82
2021/08/09 00:21:51;;;;;;;1.57;1.25;;;;;;;17.25;81.22;96774.95;1722804;81;20957;-82
2021/08/09 00:24:17;;;;;;;1.77;1.20;;;;;;;17.24;80.97;96783.01;1721831;81;21032;-82
2021/08/09 00:26:43;;;;;;;1.55;1.17;;;;;;;17.21;81.03;96788.69;1727267;81;20985;-82
2021/08/09 00:29:09;;;;;;;1.82;1.00;;;;;;;17.16;80.89;96782.78;1726298;81;21028;-81
2021/08/09 00:31:35;;;;;;;3.50;1.12;;;;;;;17.12;80.92;96788.16;1726308;81;20983;-81
2021/08/09 00:34:01;;;;;;;2.55;1.10;;;;;;;17.06;80.75;96786.38;1725291;81;21071;-81
2021/08/09 00:36:27;;;;;;;2.95;1.10;;;;;;;17.02;80.61;96787.31;1723685;81;21085;-81
2021/08/09 00:38:53;;;;;;;1.87;1.20;;;;;;;16.98;80.56;96795.32;1726015;82;21057;-81
2021/08/09 00:41:18;;;;;;;3.60;1.37;;;;;;;16.93;80.69;96803.55;1726680;81;21058;-81
2021/08/09 00:43:44;;;;;;;3.40;1.30;;;;;;;16.93;81.11;96807.48;1722719;82;21036;-81
2021/08/09 00:46:10;;;;;;;2.02;1.17;;;;;;;16.86;80.95;96804.88;1723936;81;21036;-81
2021/08/09 00:48:35;;;;;;;2.65;1.10;;;;;;;16.83;80.90;96795.31;1727655;81;21063;-80
2021/08/09 00:51:04;;;;;;;2.52;1.10;;;;;;;16.77;80.81;96791.22;1724504;82;21029;-81
2021/08/09 00:53:30;;;;;;;2.00;1.12;;;;;;;16.72;80.78;96785.77;1726867;82;20997;-80
2021/08/09 00:55:55;;;;;;;2.22;1.05;;;;;;;16.67;80.81;96777.73;1725912;81;21033;-81
2021/08/09 00:58:21;;;;;;;1.77;1.10;;;;;;;16.63;80.95;96775.72;1718235;82;21026;-80
2021/08/09 01:00:47;;;;;;;2.25;1.20;;;;;;;16.57;81.10;96766.84;1757461;80;21030;-81
2021/08/09 01:03:13;;;;;;;1.77;1.10;;;;;;;16.55;81.40;96766.25;1724512;80;20934;-81
2021/08/09 01:05:40;;;;;;;1.55;0.80;;;;;;;16.55;81.33;96769.39;1756097;81;21002;-81
2021/08/09 01:08:23;;;;;;;1.45;0.95;;;;;;;16.52;81.07;96771.92;1695570;83;20988;-81
2021/08/09 01:11:22;;;;;;;3.75;1.27;;;;;;;16.50;81.07;96770.83;1758403;80;21011;-82
2021/08/09 01:14:11;;;;;;;3.15;1.02;;;;;;;16.49;80.87;96780.22;1712037;82;21030;-81
2021/08/09 01:16:37;;;;;;;1.60;0.90;;;;;;;16.43;80.79;96787.11;1702513;82;21059;-81
2021/08/09 01:19:42;;;;;;;3.15;0.90;;;;;;;16.40;80.79;96783.57;1734169;81;20937;-81
2021/08/09 01:22:36;;;;;;;1.75;0.90;;;;;;;16.34;80.81;96792.28;1715512;81;21007;-81
2021/08/09 01:25:25;;;;;;;1.60;1.00;;;;;;;16.27;80.77;96786.27;1741454;81;20961;-82
2021/08/09 01:27:52;;;;;;;1.67;0.93;;;;;;;16.22;80.75;96782.13;1749509;81;21024;-81
2021/08/09 01:30:18;;;;;;;2.10;1.00;;;;;;;16.19;80.65;96784.66;1748352;80;20926;-81
2021/08/09 01:32:45;;;;;;;1.12;1.00;;;;;;;16.16;80.77;96790.33;1744971;81;21007;-81
2021/08/09 01:35:11;;;;;;;1.15;0.90;;;;;;;16.13;80.76;96797.30;1740075;81;21038;-81
2021/08/09 01:37:38;;;;;;;4.03;0.80;;;;;;;16.09;80.74;96797.39;1747472;81;21039;-81
2021/08/09 01:40:07;;;;;;;2.40;0.70;;;;;;;16.05;80.63;96796.70;1738763;81;21064;-81
2021/08/09 01:42:37;;;;;;;2.30;0.98;;;;;;;16.01;80.58;96789.77;1736624;81;21004;-81
2021/08/09 01:45:05;;;;;;;4.28;1.00;;;;;;;15.99;80.63;96786.55;1744054;81;21012;-81
2021/08/09 01:47:34;;;;;;;4.33;1.37;;;;;;;15.95;80.69;96768.83;1743783;81;21059;-81
2021/08/09 01:50:00;;;;;;;2.77;0.80;;;;;;;15.89;80.89;96759.45;1739908;81;20987;-81
2021/08/09 01:52:25;;;;;;;4.47;0.80;;;;;;;15.85;81.04;96756.95;1746784;81;20995;-81
2021/08/09 01:54:51;;;;;;;2.50;1.07;;;;;;;15.82;81.25;96759.17;1712886;81;21464;-81
2021/08/09 01:57:17;;;;;;;4.15;0.93;;;;;;;15.81;81.50;96758.88;1713837;81;21023;-81
2021/08/09 01:59:43;;;;;;;2.02;1.05;;;;;;;15.79;81.62;96762.22;1738027;81;20996;-81
2021/08/09 02:02:08;;;;;;;1.22;0.75;;;;;;;15.79;81.80;96763.52;1737030;81;20961;-81
2021/08/09 02:04:34;;;;;;;2.30;0.65;;;;;;;15.79;82.06;96766.95;1716328;81;21382;-81
2021/08/09 02:07:00;;;;;;;3.00;0.75;;;;;;;15.76;82.36;96766.53;1737342;81;20972;-81
2021/08/09 02:09:25;;;;;;;2.55;0.60;;;;;;;15.71;82.60;96768.45;1723909;81;21047;-81
2021/08/09 02:12:05;;;;;;;3.72;0.80;;;;;;;15.68;82.91;96771.48;1747981;81;21015;-81
2021/08/09 02:14:34;;;;;;;2.20;0.60;;;;;;;15.66;82.93;96785.80;1741069;81;21068;-81
2021/08/09 02:17:10;;;;;;;1.15;0.60;;;;;;;15.62;83.02;96794.58;1750552;81;20991;-81
2021/08/09 02:19:43;;;;;;;2.90;0.90;;;;;;;15.61;83.18;96791.13;1752939;81;21381;-81
2021/08/09 02:22:13;;;;;;;2.95;0.70;;;;;;;15.56;83.33;96794.03;1718618;82;20994;-81
2021/08/09 02:24:46;;;;;;;2.08;0.80;;;;;;;15.52;83.50;96794.95;1750745;81;21069;-81
2021/08/09 02:27:19;;;;;;;2.12;0.82;;;;;;;15.49;83.39;96801.10;1754068;80;21327;-81
2021/08/09 02:29:49;;;;;;;2.92;0.95;;;;;;;15.46;83.64;96812.79;1748471;80;21039;-81
2021/08/09 02:32:16;;;;;;;1.72;0.80;;;;;;;15.41;83.75;96811.77;1749329;80;21436;-81
2021/08/09 02:34:42;;;;;;;1.92;0.68;;;;;;;15.35;83.78;96808.14;1749296;81;21026;-81
2021/08/09 02:37:07;;;;;;;1.67;0.80;;;;;;;15.30;83.83;96805.33;1711698;82;21041;-80
2021/08/09 02:39:33;;;;;;;3.10;1.02;;;;;;;15.27;83.80;96810.44;1753661;80;21553;-81
2021/08/09 02:41:59;;;;;;;3.40;1.00;;;;;;;15.24;83.86;96803.50;1744835;81;21030;-81
2021/08/09 02:44:26;;;;;;;1.98;1.37;;;;;;;15.23;83.96;96809.74;1752123;81;21041;-81
2021/08/09 02:46:52;;;;;;;1.32;0.70;;;;;;;15.23;84.01;96804.50;1745253;80;21034;-81
2021/08/09 02:49:18;;;;;;;5.40;1.82;;;;;;;15.22;84.46;96817.30;1750556;81;21034;-80
2021/08/09 02:51:45;;;;;;;2.40;1.05;;;;;;;15.17;84.25;96823.14;1715380;82;21395;-81
2021/08/09 02:54:11;;;;;;;2.90;0.98;;;;;;;15.18;84.55;96823.44;1718435;82;21057;-81
2021/08/09 02:56:36;;;;;;;4.70;1.27;;;;;;;15.17;84.71;96834.11;1697844;82;21046;-81
2021/08/09 02:59:02;;;;;;;4.12;1.20;;;;;;;15.17;84.89;96832.80;1751643;80;21234;-81
2021/08/09 03:01:28;;;;;;;2.47;1.07;;;;;;;15.14;84.57;96828.78;1726849;81;20972;-81
2021/08/09 03:03:56;;;;;;;4.25;1.00;;;;;;;15.16;84.49;96835.92;1727128;81;21050;-81
2021/08/09 03:06:22;;;;;;;2.17;0.70;;;;;;;15.15;84.40;96843.98;1745000;81;21066;-81
2021/08/09 03:08:47;;;;;;;1.77;0.80;;;;;;;15.16;84.36;96852.13;1748870;81;21482;-81
2021/08/09 03:11:14;;;;;;;1.90;1.00;;;;;;;15.16;84.09;96861.30;1743324;81;21039;-81
2021/08/09 03:13:44;;;;;;;2.52;1.27;;;;;;;15.17;84.15;96867.63;1758648;81;20968;-81
2021/08/09 03:16:09;;;;;;;1.82;1.20;;;;;;;15.19;83.82;96887.06;1725768;81;21055;-81
2021/08/09 03:18:35;;;;;;;3.25;1.07;;;;;;;15.18;83.79;96888.08;1744009;81;21001;-81
2021/08/09 03:21:01;;;;;;;4.35;0.90;;;;;;;15.12;83.64;96896.70;1754629;81;21107;-80
2021/08/09 03:23:28;;;;;;;2.47;0.70;;;;;;;15.12;83.93;96900.63;1750641;80;21007;-81
2021/08/09 03:25:53;;;;;;;3.00;0.88;;;;;;;15.07;84.04;96905.65;1754250;81;21003;-81
2021/08/09 03:28:19;;;;;;;3.70;0.80;;;;;;;15.05;84.09;96911.59;1748704;81;20967;-81
2021/08/09 03:30:45;;;;;;;3.08;1.07;;;;;;;15.06;84.20;96913.20;1739611;82;20967;-80
2021/08/09 03:33:10;;;;;;;5.08;1.32;;;;;;;15.09;84.38;96919.34;1704650;82;20956;-81
2021/08/09 03:35:36;;;;;;;4.22;1.20;;;;;;;15.10;84.49;96916.52;1753985;81;21007;-81
2021/08/09 03:38:02;;;;;;;3.00;1.05;;;;;;;15.06;84.86;96922.36;1705857;81;21469;-81
2021/08/09 03:40:27;;;;;;;3.35;0.98;;;;;;;15.01;84.91;96925.57;1725453;81;20996;-81
2021/08/09 03:42:54;;;;;;;4.58;1.00;;;;;;;15.00;85.27;96927.38;1728939;81;20996;-80
2021/08/09 03:45:20;;;;;;;1.57;1.12;;;;;;;14.97;85.44;96928.28;1728750;81;21411;-81
2021/08/09 03:47:46;;;;;;;2.75;0.90;;;;;;;14.99;85.53;96933.62;1727348;81;21095;-81
2021/08/09 03:50:12;;;;;;;1.95;0.88;;;;;;;15.08;85.55;96934.74;1727761;81;20966;-81
2021/08/09 03:52:48;;;;;;;2.70;0.70;;;;;;;15.11;85.58;96931.22;1728190;81;21023;-81
2021/08/09 03:55:15;;;;;;;2.90;1.00;;;;;;;15.17;85.49;96934.38;1730716;81;21062;-80
2021/08/09 03:57:40;;;;;;;4.22;1.00;;;;;;;15.24;85.36;96940.94;1726750;81;21383;-81
2021/08/09 04:00:08;;;;;;;3.20;0.90;;;;;;;15.26;85.25;96941.04;1730024;81;21048;-81
2021/08/09 04:02:34;;;;;;;2.70;1.30;;;;;;;15.21;85.20;96939.52;1728612;81;21034;-80
2021/08/09 04:05:00;;;;;;;2.77;1.12;;;;;;;15.23;85.36;96941.44;1731346;81;20955;-81
2021/08/09 04:07:27;;;;;;;3.80;1.10;;;;;;;15.28;85.59;96950.80;1726726;81;21072;-81
2021/08/09 04:09:56;;;;;;;2.62;1.27;;;;;;;15.35;85.38;96942.98;1729328;81;20986;-81
2021/08/09 04:12:22;;;;;;;3.85;1.30;;;;;;;15.42;85.54;96945.61;1726791;81;21500;-81
2021/08/09 04:14:48;;;;;;;3.10;0.95;;;;;;;15.49;85.17;96945.14;1731348;81;20996;-81
2021/08/09 04:17:15;;;;;;;3.30;1.02;;;;;;;15.52;85.10;96938.99;1729369;81;20996;-81
2021/08/09 04:19:40;;;;;;;3.42;0.80;;;;;;;15.54;85.13;96946.14;1724869;81;21062;-81
2021/08/09 04:22:07;;;;;;;3.77;1.00;;;;;;;15.60;85.25;96943.25;1729373;81;21048;-81
2021/08/09 04:24:32;;;;;;;2.70;1.10;;;;;;;15.58;85.31;96940.00;1729551;81;21374;-81
2021/08/09 04:26:58;;;;;;;3.95;0.88;;;;;;;15.51;85.44;96942.63;1725941;81;21087;-80
2021/08/09 04:29:24;;;;;;;1.50;0.72;;;;;;;15.46;85.58;96941.11;1732991;81;21012;-81
2021/08/09 04:31:50;;;;;;;1.22;0.80;;;;;;;15.42;85.69;96945.11;1701707;82;21056;-80
2021/08/09 04:34:15;;;;;;;2.27;1.00;;;;;;;15.42;85.89;96947.73;1728486;81;21028;-81
2021/08/09 04:36:41;;;;;;;2.60;1.10;;;;;;;15.51;86.06;96939.20;1731056;81;21454;-81
2021/08/09 04:39:07;;;;;;;1.22;0.90;;;;;;;15.53;85.84;96942.42;1732598;81;21012;-81
2021/08/09 04:41:32;;;;;;;3.33;0.90;;;;;;;15.60;85.65;96940.12;1729919;81;21094;-81
2021/08/09 04:43:58;;;;;;;1.30;0.95;;;;;;;15.64;85.48;96943.19;1729519;81;21574;-80
2021/08/09 04:46:24;;;;;;;2.08;1.00;;;;;;;15.62;85.50;96936.03;1727896;81;21079;-81
2021/08/09 04:48:50;;;;;;;2.98;1.00;;;;;;;15.58;85.68;96940.81;1727530;81;21104;-80
2021/08/09 04:51:16;;;;;;;1.65;0.93;;;;;;;15.55;85.68;96944.33;1727237;81;21002;-80
2021/08/09 04:53:43;;;;;;;3.02;0.80;;;;;;;15.51;85.62;96940.00;1722659;81;21074;-81
2021/08/09 04:56:08;;;;;;;2.37;0.80;;;;;;;15.48;85.49;96947.45;1730369;81;21045;-81
2021/08/09 04:58:34;;;;;;;6.12;0.90;;;;;;;15.51;85.66;96950.98;1728036;81;21451;-81
2021/08/09 05:01:00;;;;;;;2.60;1.00;;;;;;;15.58;85.60;96955.72;1733637;81;21064;-81
2021/08/09 05:03:25;;;;;;;2.40;0.90;;;;;;;15.64;85.66;96952.35;1727051;81;21023;-81
2021/08/09 05:05:51;;;;;;;0.90;0.80;;;;;;;15.70;85.60;96952.85;1735912;81;20963;-81
2021/08/09 05:08:17;;;;;;;1.50;0.90;;;;;;;15.78;85.63;96947.91;1730550;82;21004;-81
2021/08/09 05:10:43;;;;;;;2.85;0.80;;;;;;;15.80;85.45;96949.34;1728963;81;21106;-81
2021/08/09 05:13:09;;;;;;;3.80;0.95;;;;;;;15.82;85.26;96956.50;1731567;81;21418;-81
2021/08/09 05:15:36;;;;;;;5.65;0.90;;;;;;;15.83;85.24;96952.06;1733165;81;20916;-81
2021/08/09 05:18:03;;;;;;;2.52;0.70;;;;;;;15.85;85.08;96961.33;1709839;82;21088;-81
2021/08/09 05:20:30;;;;;;;2.42;0.80;;;;;;;15.88;85.14;96956.19;1718488;82;20981;-80
2021/08/09 05:22:55;;;;;;;1.98;1.10;;;;;;;15.90;85.03;96956.80;1709104;82;20949;-80
2021/08/09 05:25:22;;;;;;;3.87;1.17;;;;;;;15.95;85.20;96957.52;1722138;82;21412;-81
2021/08/09 05:27:47;;;;;;;2.00;0.85;;;;;;;15.98;85.42;96956.61;1745362;81;20920;-80
2021/08/09 05:30:13;;;;;;;2.55;0.90;;;;;;;15.98;85.51;96951.87;1714919;82;21035;-80
2021/08/09 05:32:40;;;;;;;4.33;1.22;;;;;;;16.03;85.60;96958.63;1717536;82;21107;-81
2021/08/09 05:35:07;;;;;;;3.65;1.15;;;;;;;16.05;85.58;96954.78;1707292;82;21087;-81
2021/08/09 05:37:34;;;;;;;4.72;0.70;;;;;;;16.10;85.58;96960.22;1708699;82;21357;-81
2021/08/09 05:40:00;;;;;;;5.83;1.22;;;;;;;16.14;85.63;96961.45;1704456;82;20935;-81
2021/08/09 05:42:25;;;;;;;2.98;1.02;;;;;;;16.21;85.67;96956.19;1714183;82;21023;-81
2021/08/09 05:44:51;;;;;;;4.12;1.42;;;;;;;16.27;85.66;96960.64;1725885;81;21023;-81
2021/08/09 05:47:17;;;;;;;3.55;1.20;;;;;;;16.30;85.58;96956.80;1734479;81;20918;-81
2021/08/09 05:49:43;;;;;;;2.33;0.80;;;;;;;16.30;85.70;96957.61;1715800;82;21248;-80
2021/08/09 05:52:25;;;;;;;4.72;1.17;;;;;;;16.32;85.70;96952.96;1735941;81;20965;-81
2021/08/09 05:54:51;;;;;;;3.15;0.95;;;;;;;16.38;85.76;96952.64;1729377;81;21071;-81
2021/08/09 05:57:16;;;;;;;2.95;0.95;;;;;;;16.45;85.90;96948.20;1743074;81;21007;-81
2021/08/09 05:59:42;;;;;;;2.45;0.80;;;;;;;16.48;85.93;96950.41;1716811;82;21096;-81
2021/08/09 06:02:08;;;;;;;3.75;1.10;;;;;;;16.55;86.14;96947.27;1713065;82;21059;-81
2021/08/09 06:04:33;;;;;;;3.60;1.07;;;;;;;16.69;86.07;96958.06;1744413;81;21365;-80
2021/08/09 06:06:59;;;;;;;4.50;1.05;;;;;;;16.82;86.04;96955.91;1744446;81;21087;-81
2021/08/09 06:09:25;;;;;;;2.22;1.30;;;;;;;16.94;86.08;96959.52;1715887;81;20949;-81
2021/08/09 06:11:50;;;;;;;3.50;1.07;;;;;;;17.02;85.85;96957.15;1721414;82;20925;-80
2021/08/09 06:14:16;;;;;;;2.72;1.52;;;;;;;17.06;85.69;96955.70;1713088;82;21391;-80
2021/08/09 06:16:42;;;;;;;3.72;0.98;;;;;;;17.04;85.67;96957.23;1744963;81;21015;-81
2021/08/09 06:19:08;;;;;;;2.67;0.90;;;;;;;17.08;85.56;96961.08;1739211;82;21067;-81
2021/08/09 06:21:33;;;;;;;3.05;0.85;;;;;;;17.13;85.50;96964.38;1732451;82;21004;-80
2021/08/09 06:23:59;;;;;;;1.57;0.90;;;;;;;17.14;85.61;96971.24;1730927;81;20932;-81
2021/08/09 06:26:25;;;;;;;4.67;1.85;;;;;;;17.21;85.67;96960.19;1737994;80;20933;-80
2021/08/09 06:28:50;;;;;;;1.98;0.90;;;;;;;17.29;85.64;96963.09;1732285;80;20968;-81
2021/08/09 06:31:16;;;;;;;3.62;1.10;;;;;;;17.31;85.48;96957.12;1726236;80;20972;-81
2021/08/09 06:33:43;;;;;;;3.22;1.10;;;;;;;17.32;85.45;96959.54;1731452;80;21047;-81
2021/08/09 06:36:08;;;;;;;4.25;1.32;;;;;;;17.33;85.54;96964.28;1732499;81;21338;-81
2021/08/09 06:38:34;;;;;;;3.37;1.20;;;;;;;17.31;85.28;96959.25;1706294;82;20997;-80
2021/08/09 06:41:00;;;;;;;2.98;1.40;;;;;;;17.33;85.14;96963.78;1721290;82;20957;-80
2021/08/09 06:43:26;;;;;;;2.12;1.22;;;;;;;17.31;84.94;96963.19;1706660;82;21026;-80
2021/08/09 06:45:51;;;;;;;1.90;1.25;;;;;;;17.37;85.02;96968.09;1703548;82;21026;-80
2021/08/09 06:48:17;;;;;;;3.90;1.60;;;;;;;17.44;85.07;96970.70;1730859;81;21189;-80
2021/08/09 06:50:43;;;;;;;3.05;1.95;;;;;;;17.47;84.79;96970.28;1733149;81;21024;-80
2021/08/09 06:53:09;;;;;;;2.52;1.45;;;;;;;17.54;84.43;96976.29;1735634;81;21406;-80
2021/08/09 06:55:35;;;;;;;2.42;1.70;;;;;;;17.59;84.37;96977.28;1741862;81;20956;-80
2021/08/09 06:58:01;;;;;;;2.70;1.15;;;;;;;17.57;83.45;96975.86;1737091;81;21413;-80
2021/08/09 07:00:27;;;;;;;3.17;0.95;;;;;;;17.58;84.17;96969.11;1729644;80;20941;-80
2021/08/09 07:02:52;;;;;;;3.42;1.30;;;;;;;17.62;84.44;96965.55;1727150;82;21353;-80
2021/08/09 07:05:18;;;;;;;3.92;1.35;;;;;;;17.66;84.56;96973.30;1736189;81;20944;-80
2021/08/09 07:07:44;;;;;;;5.17;1.80;;;;;;;17.72;84.36;96973.78;1743473;81;20976;-80
2021/08/09 07:10:11;;;;;;;2.42;1.52;;;;;;;17.75;84.61;96975.20;1737332;81;20929;-80
2021/08/09 07:12:36;;;;;;;3.20;1.65;;;;;;;17.78;84.78;96972.14;1731338;80;20945;-80
2021/08/09 07:15:04;;;;;;;3.08;1.92;;;;;;;17.88;84.36;96974.58;1732617;80;20917;-81
2021/08/09 07:17:39;;;;;;;4.53;2.10;;;;;;;17.95;83.20;96977.98;1731552;81;20937;-80
2021/08/09 07:20:09;;;;;;;2.58;2.00;;;;;;;17.91;83.61;96978.13;1729695;81;20984;-80
2021/08/09 07:22:41;;;;;;;2.05;1.47;;;;;;;18.00;83.96;96982.08;1734577;80;21417;-80
2021/08/09 07:25:09;;;;;;;2.85;1.85;;;;;;;18.07;84.15;96977.30;1710684;82;20929;-80
2021/08/09 07:27:36;;;;;;;2.92;1.50;;;;;;;18.13;83.08;96981.70;1730178;81;21347;-80
2021/08/09 07:30:07;;;;;;;4.72;1.60;;;;;;;18.11;81.36;96977.16;1736939;81;20912;-80
2021/08/09 07:32:32;;;;;;;4.70;2.00;;;;;;;18.14;81.99;96975.41;1750662;81;21010;-80
2021/08/09 07:34:58;;;;;;;3.85;1.98;;;;;;;18.16;81.54;96981.27;1738984;80;21024;-81
2021/08/09 07:37:24;;;;;;;3.87;1.82;;;;;;;18.21;81.70;96983.53;1736241;82;21020;-80
2021/08/09 07:39:50;;;;;;;5.00;2.60;;;;;;;18.27;81.35;96981.89;1728019;80;21098;-81
2021/08/09 07:42:15;;;;;;;6.65;2.22;;;;;;;18.32;81.96;96984.67;1739208;81;20996;-81
2021/08/09 07:44:41;;;;;;;2.35;1.82;;;;;;;18.36;82.05;96977.14;1726229;80;21027;-81
2021/08/09 07:47:07;;;;;;;2.12;1.85;;;;;;;18.39;82.16;96977.54;1725749;81;20901;-81
2021/08/09 07:49:33;;;;;;;2.67;1.72;;;;;;;18.41;80.84;96975.49;1734742;81;21415;-80
2021/08/09 07:51:58;;;;;;;3.35;2.50;;;;;;;18.46;80.11;96979.58;1746048;82;20920;-80
2021/08/09 07:54:25;;;;;;;3.50;1.98;;;;;;;18.45;79.50;96983.24;1735922;81;20972;-81
2021/08/09 07:56:52;;;;;;;3.02;1.87;;;;;;;18.39;79.90;96979.37;1735355;81;20980;-81
2021/08/09 07:59:18;;;;;;;3.30;2.25;;;;;;;18.41;79.79;96978.13;1745446;82;20952;-81
2021/08/09 08:01:43;;;;;;;3.17;2.10;;;;;;;18.53;79.87;96982.14;1725541;81;21056;-81
2021/08/09 08:04:09;;;;;;;2.10;1.70;;;;;;;18.56;80.00;96983.85;1729244;81;20975;-80
2021/08/09 08:06:35;;;;;;;3.02;1.65;;;;;;;18.60;79.32;96981.07;1725297;80;20948;-81
2021/08/09 08:09:01;;;;;;;2.72;1.92;;;;;;;18.69;79.35;96983.44;1740806;82;21350;-81
2021/08/09 08:11:26;;;;;;;3.52;1.85;;;;;;;18.81;80.88;96979.88;1726209;81;20920;-83
2021/08/09 08:13:52;;;;;;;3.87;1.57;;;;;;;18.91;81.20;96984.64;1726045;81;21002;-80
2021/08/09 08:16:18;;;;;;;2.83;1.50;;;;;;;19.03;81.22;96992.59;1740868;81;20964;-81
2021/08/09 08:18:44;;;;;;;2.85;1.80;;;;;;;19.21;81.34;96989.17;1735596;80;21473;-80
2021/08/09 08:21:11;;;;;;;2.85;2.08;;;;;;;19.34;81.36;96985.83;1727425;81;21115;-80
2021/08/09 08:23:37;;;;;;;3.50;1.80;;;;;;;19.47;79.76;96985.66;1734820;80;21016;-81
2021/08/09 08:26:03;;;;;;;2.70;1.80;;;;;;;19.48;79.92;96983.83;1750578;81;20983;-80
2021/08/09 08:28:28;;;;;;;3.20;2.20;;;;;;;19.36;78.88;96988.23;1722839;80;21287;-80
2021/08/09 08:30:54;;;;;;;2.47;1.72;;;;;;;19.29;79.04;96988.84;1721868;80;20983;-80
2021/08/09 08:33:20;;;;;;;4.03;1.80;;;;;;;19.26;78.52;96987.98;1742934;80;20982;-81
2021/08/09 08:35:46;;;;;;;2.25;1.60;;;;;;;19.30;78.76;96987.82;1735032;81;21280;-80
2021/08/09 08:38:11;;;;;;;1.62;1.52;;;;;;;19.58;78.55;96993.88;1733957;80;20979;-81
2021/08/09 08:40:43;;;;;;;2.37;1.70;;;;;;;19.84;79.29;96983.46;1727214;81;20976;-81
2021/08/09 08:43:24;;;;;;;1.82;1.55;;;;;;;20.10;78.04;96993.62;1727396;80;20988;-81
2021/08/09 08:46:02;;;;;;;2.80;1.90;;;;;;;20.34;78.34;96991.32;1727049;82;20949;-81
2021/08/09 08:48:30;;;;;;;3.00;1.95;;;;;;;20.49;77.94;96990.06;1737437;80;20964;-81
2021/08/09 08:50:57;;;;;;;3.37;2.42;;;;;;;20.51;76.02;96990.67;1710254;82;20920;-81
2021/08/09 08:53:24;;;;;;;2.08;1.75;;;;;;;20.38;75.43;96993.78;1744278;81;21309;-81
2021/08/09 08:55:49;;;;;;;2.75;1.95;;;;;;;20.27;75.37;96989.29;1712397;82;20995;-81
2021/08/09 08:58:15;;;;;;;2.65;1.90;;;;;;;20.20;75.77;96987.80;1731524;80;21067;-81
2021/08/09 09:00:43;;;;;;;2.22;1.72;;;;;;;20.19;76.04;96996.23;1732332;80;20984;-81
2021/08/09 09:03:18;;;;;;;4.72;1.90;;;;;;;20.19;76.13;96992.28;1705848;82;20958;-81
2021/08/09 09:06:05;;;;;;;4.28;1.90;;;;;;;20.30;75.20;96991.47;1669175;82;21328;-81
2021/08/09 09:08:46;;;;;;;3.37;1.92;;;;;;;20.48;74.66;96994.55;1698245;82;20958;-81
2021/08/09 09:11:25;;;;;;;2.15;1.92;;;;;;;20.64;73.99;96987.77;1722967;80;20962;-81
2021/08/09 09:14:05;;;;;;;2.67;2.10;;;;;;;20.73;73.55;96990.36;1704669;82;21009;-81
2021/08/09 09:16:48;;;;;;;2.35;1.87;;;;;;;20.86;73.19;96994.61;1708513;82;20983;-81
2021/08/09 09:19:43;;;;;;;2.80;2.10;;;;;;;20.91;72.75;96996.83;1695391;84;20960;-81
2021/08/09 09:22:21;;;;;;;2.42;1.70;;;;;;;20.84;72.87;96994.84;1717580;82;21006;-81
2021/08/09 09:24:54;;;;;;;2.70;1.60;;;;;;;20.77;73.31;96989.38;1706849;82;20982;-81
2021/08/09 09:27:31;;;;;;;3.37;2.08;;;;;;;21.01;74.13;96987.00;1688558;83;21043;-81
2021/08/09 09:29:56;;;;;;;3.50;1.70;;;;;;;21.25;71.23;96987.24;1694128;83;20974;-81
2021/08/09 09:32:25;;;;;;;3.25;2.10;;;;;;;21.42;71.83;96991.27;1711336;82;21376;-81
2021/08/09 09:34:55;;;;;;;1.90;1.47;;;;;;;21.60;70.71;96990.28;1696218;83;21037;-81
2021/08/09 09:37:28;;;;;;;1.75;1.62;;;;;;;21.69;70.05;96983.58;1714067;82;21038;-81
2021/08/09 09:40:08;;;;;;;3.33;1.70;;;;;;;21.76;71.38;96982.91;1714052;82;21376;-82
2021/08/09 09:42:38;;;;;;;1.90;1.65;;;;;;;21.79;70.74;96983.74;1702928;82;20955;-82
2021/08/09 09:45:27;;;;;;;3.23;1.83;;;;;;;21.60;69.66;96978.38;1692726;83;21369;-81
2021/08/09 09:48:09;;;;;;;3.00;1.98;;;;;;;21.48;72.74;96981.09;1705301;83;21369;-82
2021/08/09 09:50:45;;;;;;;3.52;2.33;;;;;;;21.51;72.19;96978.49;1691049;84;21362;-81
2021/08/09 09:53:22;;;;;;;3.00;2.08;;;;;;;21.57;70.40;96980.18;1692855;83;20994;-81
2021/08/09 09:55:50;;;;;;;2.45;1.87;;;;;;;21.63;70.13;96976.58;1687221;83;21325;-81
2021/08/09 09:58:17;;;;;;;2.52;2.10;;;;;;;21.76;70.78;96975.48;1711245;82;21080;-81
2021/08/09 10:00:42;;;;;;;2.70;1.70;;;;;;;21.86;69.88;96974.35;1693190;83;20998;-82
2021/08/09 10:03:12;;;;;;;1.95;1.55;;;;;;;21.96;68.16;96975.03;1710353;82;20971;-82
2021/08/09 10:05:42;;;;;;;3.12;1.95;;;;;;;22.01;69.50;96979.91;1720108;82;20924;-81
2021/08/09 10:08:13;;;;;;;4.08;1.75;;;;;;;21.95;67.93;96981.36;1670718;83;21010;-82
2021/08/09 10:10:41;;;;;;;3.33;1.87;;;;;;;21.75;68.80;96989.75;1680897;83;20951;-81
2021/08/09 10:13:06;;;;;;;2.42;1.80;;;;;;;21.62;68.94;96992.69;1681660;83;20947;-81
2021/08/09 10:15:32;;;;;;;3.15;1.80;;;;;;;21.51;68.77;96994.36;1688744;83;21401;-82
2021/08/09 10:17:58;;;;;;;2.52;2.00;;;;;;;21.54;70.76;96991.23;1687384;82;21016;-82
2021/08/09 10:20:24;;;;;;;2.65;1.57;;;;;;;21.70;68.96;96991.80;1737790;81;21080;-82
2021/08/09 10:23:00;;;;;;;2.30;1.75;;;;;;;21.83;70.00;96986.22;1718104;82;20898;-82
2021/08/09 10:25:50;;;;;;;3.90;1.55;;;;;;;21.93;70.52;96988.22;1709023;82;20936;-82
2021/08/09 10:28:17;;;;;;;3.35;1.40;;;;;;;21.85;69.87;96993.91;1738680;81;21084;-82
2021/08/09 10:30:43;;;;;;;3.40;1.75;;;;;;;21.88;71.35;96990.78;1728618;81;21414;-81
2021/08/09 10:33:10;;;;;;;3.55;1.85;;;;;;;21.80;69.82;96997.28;1700896;82;21000;-82
2021/08/09 10:35:51;;;;;;;3.62;1.82;;;;;;;21.69;68.58;96995.48;1682562;82;20968;-81
2021/08/09 10:38:23;;;;;;;3.63;1.33;;;;;;;21.63;68.37;96990.32;1721801;82;20947;-82
2021/08/09 10:41:09;;;;;;;3.70;1.60;;;;;;;21.66;70.80;96993.32;1729860;81;20961;-82
2021/08/09 10:43:40;;;;;;;3.90;1.80;;;;;;;21.81;71.07;96997.56;1733109;81;20977;-82
2021/08/09 10:46:38;;;;;;;3.05;1.82;;;;;;;22.00;71.77;96992.05;1728283;81;21034;-81
2021/08/09 10:49:06;;;;;;;2.72;2.20;;;;;;;22.11;69.14;96995.96;1732869;81;20984;-82
2021/08/09 10:51:54;;;;;;;2.87;1.70;;;;;;;22.26;67.85;96990.63;1724716;81;21023;-82
2021/08/09 10:54:35;;;;;;;2.58;1.75;;;;;;;22.42;67.37;96991.95;1725402;82;20965;-82
2021/08/09 10:57:02;;;;;;;2.80;1.63;;;;;;;22.51;66.62;96991.03;1726858;81;20957;-82
2021/08/09 10:59:44;;;;;;;3.60;1.90;;;;;;;22.60;66.11;96987.44;1744795;81;21189;-82
2021/08/09 11:02:23;;;;;;;16.20;5.47;;;;;;;22.68;65.44;96989.16;1734257;81;21021;-82
2021/08/09 11:05:19;;;;;;;3.02;1.98;;;;;;;22.77;65.99;96982.91;1687999;82;21092;-82
2021/08/09 11:07:46;;;;;;;19.70;8.73;;;;;;;22.82;64.61;96980.88;1692516;82;20982;-82
2021/08/09 11:10:12;;;;;;;16.17;12.78;;;;;;;22.90;65.58;96981.27;1714263;82;21029;-82
2021/08/09 11:12:58;;;;;;;3.65;2.15;;;;;;;22.93;64.71;96979.97;1698997;82;20984;-82
2021/08/09 11:15:24;;;;;;;2.55;1.90;;;;;;;22.83;66.05;96980.66;1721487;81;21392;-82
2021/08/09 11:17:51;;;;;;;3.20;2.02;;;;;;;22.71;64.86;96983.90;1731989;80;21076;-82
2021/08/09 11:20:23;;;;;;;2.95;1.70;;;;;;;22.74;66.46;96984.73;1741684;80;21017;-82
2021/08/09 11:23:02;;;;;;;3.70;1.57;;;;;;;22.72;65.27;96988.15;1707981;82;20911;-82
2021/08/09 11:25:47;;;;;;;4.10;1.95;;;;;;;22.66;65.57;96990.45;1713804;82;20907;-82
2021/08/09 11:28:18;;;;;;;2.55;1.75;;;;;;;22.79;65.12;96985.34;1742027;80;20995;-82
2021/08/09 11:30:51;;;;;;;3.10;2.00;;;;;;;22.99;66.14;96981.13;1732871;80;21352;-82
2021/08/09 11:33:33;;;;;;;3.42;2.05;;;;;;;23.17;65.90;96984.00;1719872;81;21340;-82
2021/08/09 11:36:10;;;;;;;2.65;1.60;;;;;;;23.28;64.83;96987.59;1698429;82;20959;-82
2021/08/09 11:38:53;;;;;;;4.97;2.30;;;;;;;23.33;63.89;96987.64;1738643;80;20953;-82
2021/08/09 11:41:25;;;;;;;2.67;2.00;;;;;;;23.43;65.86;96980.30;1729386;80;20976;-82
2021/08/09 11:44:10;;;;;;;2.98;2.00;;;;;;;23.45;63.32;96986.19;1738391;81;20949;-82